createdAt,value
2024-01-15T00:00:17.468Z,40.10
2024-01-15T00:01:17.522Z,40.60
2024-01-15T00:02:17.400Z,38.80
2024-01-15T00:03:17.514Z,39.20
2024-01-15T00:04:17.552Z,46.30
2024-01-15T00:05:17.368Z,40.50
2024-01-15T00:06:17.419Z,41.20
2024-01-15T00:07:17.363Z,41.60
2024-01-15T00:08:17.327Z,37.80
2024-01-15T00:09:17.379Z,41.00
2024-01-15T00:10:17.309Z,40.40
2024-01-15T00:11:17.290Z,40.70
2024-01-15T00:12:17.293Z,38.80
2024-01-15T00:13:17.268Z,39.60
2024-01-15T00:14:17.268Z,40.60
2024-01-15T00:15:17.315Z,38.10
2024-01-15T00:16:17.277Z,40.80
2024-01-15T00:17:17.245Z,41.30
2024-01-15T00:18:17.387Z,34.80
2024-01-15T00:19:17.316Z,40.90
2024-01-15T00:20:17.195Z,37.60
2024-01-15T00:21:17.231Z,38.90
2024-01-15T00:22:17.195Z,39.30
2024-01-15T00:23:17.189Z,35.60
2024-01-15T00:24:17.207Z,39.20
2024-01-15T00:25:17.142Z,34.40
2024-01-15T00:26:17.150Z,36.90
2024-01-15T00:27:17.161Z,36.90
2024-01-15T00:28:17.118Z,34.80
2024-01-15T00:29:17.097Z,37.90
2024-01-15T00:30:17.251Z,37.00
2024-01-15T00:31:17.203Z,38.60
2024-01-15T00:32:17.107Z,35.20
2024-01-15T00:33:17.333Z,37.50
2024-01-15T00:34:17.212Z,36.00
2024-01-15T00:35:17.038Z,37.40
2024-01-15T00:36:17.128Z,36.20
2024-01-15T00:37:17.028Z,36.30
2024-01-15T00:38:17.028Z,34.50
2024-01-15T00:39:17.125Z,35.70
2024-01-15T00:40:16.998Z,34.00
2024-01-15T00:41:16.972Z,36.00
2024-01-15T00:42:17.025Z,34.10
2024-01-15T00:43:16.953Z,33.60
2024-01-15T00:44:16.938Z,36.70
2024-01-15T00:45:16.948Z,37.30
2024-01-15T00:46:16.955Z,35.40
2024-01-15T00:47:16.918Z,34.00
2024-01-15T00:48:17.076Z,34.60
2024-01-15T00:49:17.110Z,36.80
2024-01-15T00:50:16.905Z,37.30
2024-01-15T00:51:16.928Z,35.50
2024-01-15T00:52:16.852Z,38.50
2024-01-15T00:53:16.854Z,34.50
2024-01-15T00:54:16.871Z,36.00
2024-01-15T00:55:16.835Z,34.70
2024-01-15T00:56:16.832Z,35.10
2024-01-15T00:57:16.839Z,33.30
2024-01-15T00:58:16.791Z,34.50
2024-01-15T00:59:16.813Z,31.60
2024-01-15T01:00:16.880Z,32.70
2024-01-15T01:01:16.851Z,31.70
2024-01-15T01:02:16.742Z,33.50
2024-01-15T01:03:16.862Z,35.10
2024-01-15T01:04:16.902Z,35.00
2024-01-15T01:05:16.768Z,34.40
2024-01-15T01:06:16.710Z,34.10
2024-01-15T01:07:16.704Z,32.20
2024-01-15T01:08:16.685Z,34.40
2024-01-15T01:09:16.777Z,32.40
2024-01-15T01:10:16.671Z,33.20
2024-01-15T01:11:16.649Z,30.40
2024-01-15T01:12:16.660Z,31.10
2024-01-15T01:13:16.646Z,33.90
2024-01-15T01:14:16.652Z,31.90
2024-01-15T01:15:16.674Z,32.90
2024-01-15T01:16:16.604Z,31.00
2024-01-15T01:17:16.629Z,32.30
2024-01-15T01:18:16.719Z,30.40
2024-01-15T01:19:16.749Z,32.60
2024-01-15T01:20:18.947Z,30.10
2024-01-15T01:21:16.585Z,30.40
2024-01-15T01:22:16.536Z,33.50
2024-01-15T01:23:16.526Z,30.80
2024-01-15T01:24:16.561Z,31.40
2024-01-15T01:25:16.559Z,33.90
2024-01-15T01:26:16.490Z,31.30
2024-01-15T01:27:16.529Z,31.40
2024-01-15T01:28:16.482Z,32.60
2024-01-15T01:29:16.475Z,32.70
2024-01-15T01:30:16.586Z,29.40
2024-01-15T01:31:16.570Z,29.50
2024-01-15T01:32:16.433Z,30.90
2024-01-15T01:33:16.542Z,29.30
2024-01-15T01:34:16.575Z,32.00
2024-01-15T01:35:16.395Z,31.70
2024-01-15T01:36:16.468Z,30.80
2024-01-15T01:37:16.385Z,34.20
2024-01-15T01:38:16.375Z,31.80
2024-01-15T01:39:16.416Z,31.10
2024-01-15T01:40:16.362Z,29.50
2024-01-15T01:41:16.342Z,29.20
2024-01-15T01:42:16.439Z,34.00
2024-01-15T01:43:16.327Z,30.90
2024-01-15T01:44:16.320Z,33.80
2024-01-15T01:45:16.332Z,32.50
2024-01-15T01:46:16.287Z,29.70
2024-01-15T01:47:16.285Z,30.80
2024-01-15T01:48:16.343Z,28.90
2024-01-15T01:49:16.322Z,32.60
2024-01-15T01:50:16.255Z,30.50
2024-01-15T01:51:16.274Z,28.50
2024-01-15T01:52:16.236Z,31.10
2024-01-15T01:53:16.212Z,31.40
2024-01-15T01:54:16.215Z,32.20
2024-01-15T01:55:16.190Z,30.90
2024-01-15T01:56:16.198Z,25.60
2024-01-15T01:57:16.229Z,30.30
2024-01-15T01:58:16.160Z,30.30
2024-01-15T01:59:16.165Z,29.80
2024-01-15T02:00:16.153Z,30.80
2024-01-15T02:01:16.232Z,29.60
2024-01-15T02:02:16.122Z,29.00
2024-01-15T02:03:16.169Z,26.90
2024-01-15T02:04:19.681Z,26.60
2024-01-15T02:05:16.095Z,25.90
2024-01-15T02:06:16.125Z,28.40
2024-01-15T02:07:16.086Z,26.70
2024-01-15T02:08:16.049Z,27.90
2024-01-15T02:09:16.174Z,27.60
2024-01-15T02:10:16.030Z,27.70
2024-01-15T02:11:16.041Z,29.30
2024-01-15T02:12:16.036Z,30.20
2024-01-15T02:13:16.001Z,28.10
2024-01-15T02:14:16.019Z,26.70
2024-01-15T02:15:16.015Z,26.80
2024-01-15T02:16:15.953Z,27.70
2024-01-15T02:17:15.953Z,22.90
2024-01-15T02:18:16.059Z,25.40
2024-01-15T02:19:16.104Z,27.40
2024-01-15T02:20:15.920Z,25.90
2024-01-15T02:21:15.947Z,23.80
2024-01-15T02:22:15.907Z,24.90
2024-01-15T02:23:15.902Z,23.90
2024-01-15T02:24:15.907Z,24.80
2024-01-15T02:25:15.870Z,27.80
2024-01-15T02:26:15.862Z,26.00
2024-01-15T02:27:15.856Z,24.20
2024-01-15T02:28:15.873Z,25.20
2024-01-15T02:29:15.851Z,24.90
2024-01-15T02:30:15.865Z,26.00
2024-01-15T02:31:15.849Z,26.80
2024-01-15T02:32:15.784Z,22.90
2024-01-15T02:33:15.932Z,26.00
2024-01-15T02:34:15.861Z,23.30
2024-01-15T02:35:15.769Z,25.60
2024-01-15T02:36:15.814Z,26.20
2024-01-15T02:37:15.734Z,22.80
2024-01-15T02:38:15.726Z,25.80
2024-01-15T02:39:15.752Z,26.10
2024-01-15T02:40:15.702Z,26.50
2024-01-15T02:41:15.691Z,26.00
2024-01-15T02:42:15.720Z,23.50
2024-01-15T02:43:15.689Z,25.60
2024-01-15T02:44:15.652Z,24.90
2024-01-15T02:45:15.670Z,25.60
2024-01-15T02:46:15.631Z,26.60
2024-01-15T02:47:15.654Z,24.00
2024-01-15T02:48:15.803Z,25.00
2024-01-15T02:49:15.721Z,25.20
2024-01-15T02:50:15.610Z,26.00
2024-01-15T02:51:15.655Z,26.90
2024-01-15T02:52:15.579Z,24.30
2024-01-15T02:53:15.566Z,24.60
2024-01-15T02:54:15.591Z,25.40
2024-01-15T02:55:15.538Z,25.00
2024-01-15T02:56:15.529Z,25.20
2024-01-15T02:57:15.574Z,24.80
2024-01-15T02:58:15.508Z,23.80
2024-01-15T02:59:15.498Z,26.50
2024-01-15T03:00:15.640Z,24.70
2024-01-15T03:01:15.579Z,23.40
2024-01-15T03:02:15.513Z,22.90
2024-01-15T03:03:15.479Z,24.50
2024-01-15T03:04:15.629Z,20.90
2024-01-15T03:05:15.681Z,22.10
2024-01-15T03:06:15.459Z,24.20
2024-01-15T03:07:15.422Z,24.10
2024-01-15T03:08:15.401Z,21.30
2024-01-15T03:09:15.482Z,23.20
2024-01-15T03:10:15.376Z,21.30
2024-01-15T03:11:15.400Z,21.60
2024-01-15T03:12:15.377Z,20.60
2024-01-15T03:13:15.379Z,22.80
2024-01-15T03:14:15.344Z,22.40
2024-01-15T03:15:15.365Z,21.30
2024-01-15T03:16:15.328Z,21.30
2024-01-15T03:17:15.312Z,22.20
2024-01-15T03:18:15.352Z,19.30
2024-01-15T03:19:15.356Z,22.80
2024-01-15T03:20:15.332Z,23.60
2024-01-15T03:21:15.345Z,18.50
2024-01-15T03:22:15.252Z,20.10
2024-01-15T03:23:15.273Z,21.40
2024-01-15T03:24:15.248Z,18.30
2024-01-15T03:25:15.247Z,20.30
2024-01-15T03:26:15.218Z,18.30
2024-01-15T03:27:15.224Z,19.90
2024-01-15T03:28:15.191Z,17.60
2024-01-15T03:29:15.201Z,20.50
2024-01-15T03:30:15.247Z,21.20
2024-01-15T03:31:15.241Z,20.80
2024-01-15T03:32:15.159Z,20.30
2024-01-15T03:33:15.224Z,22.00
2024-01-15T03:34:15.209Z,21.80
2024-01-15T03:35:15.201Z,19.50
2024-01-15T03:36:15.122Z,20.80
2024-01-15T03:37:15.098Z,21.50
2024-01-15T03:38:15.084Z,18.60
2024-01-15T03:39:15.142Z,23.40
2024-01-15T03:40:16.030Z,20.00
2024-01-15T03:41:15.071Z,20.30
2024-01-15T03:42:15.069Z,19.50
2024-01-15T03:43:15.052Z,20.10
2024-01-15T03:44:15.030Z,22.30
2024-01-15T03:45:15.054Z,20.90
2024-01-15T03:46:15.000Z,19.50
2024-01-15T03:47:15.006Z,20.10
2024-01-15T03:48:15.203Z,22.20
2024-01-15T03:49:15.035Z,18.50
2024-01-15T03:50:14.979Z,18.60
2024-01-15T03:51:14.969Z,21.00
2024-01-15T03:52:14.933Z,20.50
2024-01-15T03:53:14.941Z,20.60
2024-01-15T03:54:16.539Z,22.00
2024-01-15T03:55:14.909Z,18.30
2024-01-15T03:56:14.900Z,19.40
2024-01-15T03:57:14.946Z,17.60
2024-01-15T03:58:14.887Z,18.20
2024-01-15T03:59:14.887Z,17.10
2024-01-15T04:00:14.900Z,19.50
2024-01-15T04:01:14.887Z,20.60
2024-01-15T04:02:14.846Z,18.50
2024-01-15T04:03:14.857Z,18.70
2024-01-15T04:04:16.663Z,18.50
2024-01-15T04:05:14.801Z,18.90
2024-01-15T04:06:14.857Z,18.90
2024-01-15T04:07:14.810Z,19.50
2024-01-15T04:08:14.758Z,16.30
2024-01-15T04:09:14.806Z,16.50
2024-01-15T04:10:14.738Z,17.50
2024-01-15T04:11:14.745Z,17.10
2024-01-15T04:12:14.773Z,19.60
2024-01-15T04:13:14.705Z,16.20
2024-01-15T04:14:14.704Z,15.50
2024-01-15T04:15:14.792Z,18.80
2024-01-15T04:16:14.700Z,18.40
2024-01-15T04:17:14.677Z,18.40
2024-01-15T04:18:14.732Z,16.60
2024-01-15T04:19:14.737Z,16.50
2024-01-15T04:20:14.642Z,14.00
2024-01-15T04:21:14.664Z,16.10
2024-01-15T04:22:14.606Z,17.40
2024-01-15T04:23:14.599Z,15.70
2024-01-15T04:24:14.748Z,18.00
2024-01-15T04:25:14.592Z,16.10
2024-01-15T04:26:14.579Z,17.30
2024-01-15T04:27:14.581Z,17.30
2024-01-15T04:28:14.556Z,17.00
2024-01-15T04:29:14.536Z,15.00
2024-01-15T04:30:14.801Z,16.20
2024-01-15T04:31:14.577Z,13.50
2024-01-15T04:32:14.506Z,15.30
2024-01-15T04:33:14.648Z,17.60
2024-01-15T04:34:14.645Z,16.10
2024-01-15T04:35:14.503Z,17.90
2024-01-15T04:36:14.490Z,15.60
2024-01-15T04:37:14.459Z,18.30
2024-01-15T04:38:14.458Z,14.40
2024-01-15T04:39:14.492Z,15.70
2024-01-15T04:40:14.430Z,18.50
2024-01-15T04:41:14.423Z,13.70
2024-01-15T04:42:14.414Z,14.20
2024-01-15T04:43:14.390Z,16.80
2024-01-15T04:44:14.388Z,18.50
2024-01-15T04:45:14.428Z,17.90
2024-01-15T04:46:14.359Z,15.00
2024-01-15T04:47:14.353Z,18.10
2024-01-15T04:48:14.400Z,15.70
2024-01-15T04:49:14.491Z,17.70
2024-01-15T04:50:14.330Z,15.80
2024-01-15T04:51:14.330Z,16.50
2024-01-15T04:52:14.297Z,16.90
2024-01-15T04:53:14.330Z,12.50
2024-01-15T04:54:14.297Z,15.60
2024-01-15T04:55:14.289Z,15.00
2024-01-15T04:56:14.253Z,16.30
2024-01-15T04:57:14.314Z,14.70
2024-01-15T04:58:14.248Z,16.60
2024-01-15T04:59:14.227Z,15.10
2024-01-15T05:00:14.263Z,19.60
2024-01-15T05:01:14.293Z,14.80
2024-01-15T05:02:14.224Z,15.80
2024-01-15T05:03:14.343Z,16.70
2024-01-15T05:04:14.223Z,13.50
2024-01-15T05:05:14.200Z,13.80
2024-01-15T05:06:14.251Z,13.80
2024-01-15T05:07:14.145Z,16.40
2024-01-15T05:08:14.133Z,15.50
2024-01-15T05:09:14.147Z,17.40
2024-01-15T05:10:14.130Z,16.10
2024-01-15T05:11:14.092Z,15.20
2024-01-15T05:12:14.127Z,17.80
2024-01-15T05:13:14.063Z,10.70
2024-01-15T05:14:14.061Z,14.10
2024-01-15T05:15:14.107Z,17.30
2024-01-15T05:16:14.041Z,15.00
2024-01-15T05:17:14.035Z,12.90
2024-01-15T05:18:14.144Z,13.70
2024-01-15T05:19:14.174Z,14.00
2024-01-15T05:20:14.091Z,15.00
2024-01-15T05:21:14.070Z,13.40
2024-01-15T05:22:13.993Z,15.30
2024-01-15T05:23:13.957Z,13.90
2024-01-15T05:24:13.982Z,15.70
2024-01-15T05:25:13.979Z,16.10
2024-01-15T05:26:13.965Z,14.10
2024-01-15T05:27:13.970Z,13.20
2024-01-15T05:28:13.915Z,10.20
2024-01-15T05:29:13.917Z,10.10
2024-01-15T05:30:13.968Z,15.60
2024-01-15T05:31:14.000Z,13.80
2024-01-15T05:32:13.873Z,13.50
2024-01-15T05:33:13.963Z,13.90
2024-01-15T05:34:13.903Z,13.30
2024-01-15T05:35:13.850Z,11.10
2024-01-15T05:36:13.874Z,13.30
2024-01-15T05:37:13.817Z,11.90
2024-01-15T05:38:13.838Z,12.30
2024-01-15T05:39:13.809Z,13.20
2024-01-15T05:40:13.795Z,10.40
2024-01-15T05:41:13.772Z,12.20
2024-01-15T05:42:13.803Z,13.00
2024-01-15T05:43:13.748Z,16.30
2024-01-15T05:44:13.739Z,12.20
2024-01-15T05:45:13.775Z,12.10
2024-01-15T05:46:13.716Z,14.50
2024-01-15T05:47:13.707Z,12.90
2024-01-15T05:48:13.860Z,11.00
2024-01-15T05:49:13.844Z,11.10
2024-01-15T05:50:13.688Z,12.70
2024-01-15T05:51:13.695Z,12.20
2024-01-15T05:52:13.673Z,12.70
2024-01-15T05:53:13.645Z,12.10
2024-01-15T05:54:13.661Z,10.20
2024-01-15T05:55:13.628Z,13.60
2024-01-15T05:56:13.607Z,15.40
2024-01-15T05:57:13.637Z,12.10
2024-01-15T05:58:13.601Z,13.00
2024-01-15T05:59:15.787Z,13.10
2024-01-15T06:00:13.691Z,11.00
2024-01-15T06:01:13.688Z,8.90
2024-01-15T06:02:13.557Z,12.60
2024-01-15T06:03:13.548Z,14.20
2024-01-15T06:04:13.695Z,10.20
2024-01-15T06:05:13.549Z,14.60
2024-01-15T06:06:13.638Z,14.60
2024-01-15T06:07:13.497Z,12.60
2024-01-15T06:08:13.508Z,12.80
2024-01-15T06:09:13.578Z,11.50
2024-01-15T06:10:13.463Z,13.20
2024-01-15T06:11:13.444Z,11.40
2024-01-15T06:12:13.494Z,10.00
2024-01-15T06:13:13.435Z,10.80
2024-01-15T06:14:13.415Z,10.60
2024-01-15T06:15:13.439Z,11.70
2024-01-15T06:16:13.521Z,9.80
2024-01-15T06:17:13.396Z,12.20
2024-01-15T06:18:13.540Z,9.40
2024-01-15T06:19:13.432Z,9.80
2024-01-15T06:20:13.363Z,13.50
2024-01-15T06:21:13.373Z,9.40
2024-01-15T06:22:13.379Z,9.00
2024-01-15T06:23:13.316Z,9.30
2024-01-15T06:24:13.338Z,10.00
2024-01-15T06:25:13.316Z,9.40
2024-01-15T06:26:13.302Z,12.20
2024-01-15T06:27:13.294Z,9.80
2024-01-15T06:28:13.269Z,7.80
2024-01-15T06:29:13.251Z,8.50
2024-01-15T06:30:13.764Z,6.50
2024-01-15T06:31:13.395Z,7.60
2024-01-15T06:32:13.338Z,8.20
2024-01-15T06:33:13.317Z,8.00
2024-01-15T06:34:13.393Z,6.90
2024-01-15T06:35:13.227Z,6.20
2024-01-15T06:36:13.219Z,11.30
2024-01-15T06:37:13.180Z,10.00
2024-01-15T06:38:13.166Z,5.90
2024-01-15T06:39:13.178Z,8.40
2024-01-15T06:40:13.141Z,9.00
2024-01-15T06:41:13.153Z,9.00
2024-01-15T06:42:13.172Z,8.40
2024-01-15T06:43:13.116Z,9.00
2024-01-15T06:44:13.109Z,9.80
2024-01-15T06:45:13.114Z,8.90
2024-01-15T06:46:13.151Z,8.60
2024-01-15T06:47:13.075Z,8.40
2024-01-15T06:48:13.101Z,8.10
2024-01-15T06:49:13.228Z,10.50
2024-01-15T06:50:13.043Z,7.90
2024-01-15T06:51:13.046Z,11.50
2024-01-15T06:52:13.011Z,10.80
2024-01-15T06:53:12.996Z,10.30
2024-01-15T06:54:13.047Z,10.30
2024-01-15T06:55:13.004Z,12.10
2024-01-15T06:56:12.977Z,12.90
2024-01-15T06:57:13.000Z,11.60
2024-01-15T06:58:13.004Z,12.30
2024-01-15T06:59:14.685Z,10.20
2024-01-15T07:00:12.947Z,11.40
2024-01-15T07:01:12.986Z,10.10
2024-01-15T07:02:12.923Z,13.00
2024-01-15T07:03:12.998Z,14.60
2024-01-15T07:04:12.934Z,12.60
2024-01-15T07:05:12.898Z,13.10
2024-01-15T07:06:12.943Z,12.70
2024-01-15T07:07:12.856Z,12.60
2024-01-15T07:08:12.863Z,14.40
2024-01-15T07:09:12.915Z,15.70
2024-01-15T07:10:12.828Z,12.40
2024-01-15T07:11:12.825Z,15.60
2024-01-15T07:12:12.990Z,15.60
2024-01-15T07:13:12.805Z,14.70
2024-01-15T07:14:12.792Z,15.90
2024-01-15T07:15:12.813Z,18.80
2024-01-15T07:16:12.761Z,16.10
2024-01-15T07:17:12.777Z,16.40
2024-01-15T07:18:12.934Z,18.20
2024-01-15T07:19:12.823Z,13.40
2024-01-15T07:20:12.815Z,13.30
2024-01-15T07:21:12.737Z,13.60
2024-01-15T07:22:12.710Z,13.70
2024-01-15T07:23:12.698Z,16.10
2024-01-15T07:24:12.786Z,18.80
2024-01-15T07:25:12.673Z,14.70
2024-01-15T07:26:12.665Z,15.40
2024-01-15T07:27:12.680Z,17.60
2024-01-15T07:28:12.636Z,13.70
2024-01-15T07:29:12.627Z,12.90
2024-01-15T07:30:12.783Z,17.80
2024-01-15T07:31:12.679Z,15.20
2024-01-15T07:32:12.601Z,15.80
2024-01-15T07:33:12.727Z,13.00
2024-01-15T07:34:12.661Z,12.80
2024-01-15T07:35:12.594Z,13.00
2024-01-15T07:36:12.637Z,12.60
2024-01-15T07:37:12.546Z,15.30
2024-01-15T07:38:12.537Z,13.40
2024-01-15T07:39:12.564Z,17.40
2024-01-15T07:40:12.587Z,12.30
2024-01-15T07:41:12.504Z,11.10
2024-01-15T07:42:12.502Z,14.20
2024-01-15T07:43:12.470Z,16.90
2024-01-15T07:44:12.462Z,14.00
2024-01-15T07:45:12.514Z,14.20
2024-01-15T07:46:12.499Z,13.40
2024-01-15T07:47:12.435Z,12.20
2024-01-15T07:48:12.595Z,12.50
2024-01-15T07:49:12.456Z,13.60
2024-01-15T07:50:12.459Z,12.10
2024-01-15T07:51:12.461Z,13.70
2024-01-15T07:52:12.379Z,13.30
2024-01-15T07:53:12.367Z,13.10
2024-01-15T07:54:12.390Z,13.20
2024-01-15T07:55:12.352Z,12.80
2024-01-15T07:56:12.338Z,12.40
2024-01-15T07:57:12.406Z,14.30
2024-01-15T07:58:16.467Z,14.70
2024-01-15T07:59:12.308Z,14.80
2024-01-15T08:00:12.437Z,11.90
2024-01-15T08:01:12.432Z,19.00
2024-01-15T08:02:12.306Z,13.10
2024-01-15T08:03:12.388Z,11.70
2024-01-15T08:04:12.409Z,13.20
2024-01-15T08:05:12.256Z,12.70
2024-01-15T08:06:12.308Z,14.20
2024-01-15T08:07:12.295Z,14.40
2024-01-15T08:08:12.215Z,12.50
2024-01-15T08:09:12.234Z,13.90
2024-01-15T08:10:12.195Z,13.20
2024-01-15T08:11:12.173Z,13.20
2024-01-15T08:12:12.238Z,14.10
2024-01-15T08:13:12.197Z,14.30
2024-01-15T08:14:12.164Z,16.70
2024-01-15T08:15:12.178Z,14.00
2024-01-15T08:16:12.142Z,11.50
2024-01-15T08:17:12.109Z,11.50
2024-01-15T08:18:12.266Z,12.80
2024-01-15T08:19:12.312Z,11.50
2024-01-15T08:20:12.214Z,11.90
2024-01-15T08:21:12.066Z,12.40
2024-01-15T08:22:12.056Z,13.50
2024-01-15T08:23:12.051Z,13.10
2024-01-15T08:24:12.118Z,13.20
2024-01-15T08:25:12.024Z,11.50
2024-01-15T08:26:12.031Z,11.30
2024-01-15T08:27:12.087Z,12.10
2024-01-15T08:28:12.016Z,13.10
2024-01-15T08:29:11.992Z,15.50
2024-01-15T08:30:12.064Z,12.20
2024-01-15T08:31:12.056Z,13.40
2024-01-15T08:32:11.972Z,10.90
2024-01-15T08:33:21.118Z,11.20
2024-01-15T08:34:12.030Z,12.70
2024-01-15T08:35:12.006Z,15.40
2024-01-15T08:36:12.022Z,11.60
2024-01-15T08:37:11.898Z,12.90
2024-01-15T08:38:11.887Z,10.40
2024-01-15T08:39:11.922Z,13.80
2024-01-15T08:40:11.872Z,11.60
2024-01-15T08:41:11.862Z,11.40
2024-01-15T08:42:11.923Z,10.70
2024-01-15T08:43:11.845Z,11.60
2024-01-15T08:44:11.844Z,12.30
2024-01-15T08:45:11.825Z,13.10
2024-01-15T08:46:11.831Z,12.10
2024-01-15T08:47:11.789Z,10.90
2024-01-15T08:48:11.850Z,10.80
2024-01-15T08:49:11.806Z,12.20
2024-01-15T08:50:11.754Z,13.00
2024-01-15T08:51:11.779Z,11.60
2024-01-15T08:52:11.740Z,11.60
2024-01-15T08:53:11.719Z,11.60
2024-01-15T08:54:11.751Z,12.50
2024-01-15T08:55:11.716Z,11.80
2024-01-15T08:56:11.715Z,10.70
2024-01-15T08:57:11.697Z,11.70
2024-01-15T08:58:11.676Z,11.50
2024-01-15T08:59:11.669Z,12.80
2024-01-15T09:00:11.723Z,10.70
2024-01-15T09:01:11.812Z,14.30
2024-01-15T09:02:11.637Z,10.80
2024-01-15T09:03:11.651Z,10.50
2024-01-15T09:04:11.692Z,12.50
2024-01-15T09:05:11.770Z,12.80
2024-01-15T09:06:11.657Z,11.80
2024-01-15T09:07:11.572Z,13.20
2024-01-15T09:08:11.575Z,12.40
2024-01-15T09:09:11.603Z,11.80
2024-01-15T09:10:11.554Z,11.90
2024-01-15T09:11:11.533Z,13.00
2024-01-15T09:12:11.606Z,11.60
2024-01-15T09:13:11.504Z,12.00
2024-01-15T09:14:11.510Z,12.20
2024-01-15T09:15:11.520Z,12.00
2024-01-15T09:16:11.570Z,11.70
2024-01-15T09:17:11.458Z,11.40
2024-01-15T09:18:11.572Z,11.10
2024-01-15T09:19:11.543Z,11.80
2024-01-15T09:20:11.481Z,11.60
2024-01-15T09:21:11.521Z,12.60
2024-01-15T09:22:11.417Z,11.80
2024-01-15T09:23:11.405Z,10.40
2024-01-15T09:24:11.424Z,11.20
2024-01-15T09:25:11.536Z,12.10
2024-01-15T09:26:11.369Z,10.50
2024-01-15T09:27:11.444Z,11.20
2024-01-15T09:28:11.370Z,10.30
2024-01-15T09:29:11.345Z,11.30
2024-01-15T09:30:11.489Z,10.40
2024-01-15T09:31:11.405Z,10.20
2024-01-15T09:32:11.394Z,10.10
2024-01-15T09:33:11.501Z,11.50
2024-01-15T09:34:11.411Z,10.60
2024-01-15T09:35:11.275Z,11.20
2024-01-15T09:36:11.308Z,9.10
2024-01-15T09:37:14.777Z,9.30
2024-01-15T09:38:11.249Z,9.70
2024-01-15T09:39:11.278Z,10.60
2024-01-15T09:40:11.240Z,8.80
2024-01-15T09:41:11.284Z,8.80
2024-01-15T09:42:11.240Z,8.90
2024-01-15T09:43:11.233Z,10.10
2024-01-15T09:44:11.180Z,9.50
2024-01-15T09:45:11.413Z,8.50
2024-01-15T09:46:11.182Z,8.70
2024-01-15T09:47:11.177Z,7.80
2024-01-15T09:48:11.214Z,8.40
2024-01-15T09:49:11.230Z,7.70
2024-01-15T09:50:11.290Z,7.70
2024-01-15T09:51:11.146Z,8.50
2024-01-15T09:52:12.317Z,8.60
2024-01-15T09:53:11.088Z,8.20
2024-01-15T09:54:11.133Z,6.90
2024-01-15T09:55:11.242Z,6.60
2024-01-15T09:56:11.086Z,6.40
2024-01-15T09:57:11.078Z,6.80
2024-01-15T09:58:11.030Z,6.30
2024-01-15T09:59:11.024Z,6.70
2024-01-15T10:00:11.061Z,6.80
2024-01-15T10:01:11.097Z,5.90
2024-01-15T10:02:11.016Z,8.20
2024-01-15T10:03:11.534Z,7.40
2024-01-15T10:04:11.079Z,5.50
2024-01-15T10:05:10.984Z,7.50
2024-01-15T10:06:11.033Z,5.40
2024-01-15T10:07:10.966Z,5.20
2024-01-15T10:08:10.918Z,5.00
2024-01-15T10:09:10.964Z,4.70
2024-01-15T10:10:10.915Z,5.40
2024-01-15T10:11:10.894Z,5.60
2024-01-15T10:12:10.912Z,6.60
2024-01-15T10:13:10.867Z,7.70
2024-01-15T10:14:10.862Z,4.30
2024-01-15T10:15:10.880Z,3.90
2024-01-15T10:16:10.835Z,5.70
2024-01-15T10:17:10.827Z,4.80
2024-01-15T10:18:10.988Z,4.00
2024-01-15T10:19:10.992Z,3.60
2024-01-15T10:20:10.860Z,4.60
2024-01-15T10:21:10.823Z,4.00
2024-01-15T10:22:10.771Z,4.40
2024-01-15T10:23:10.772Z,6.70
2024-01-15T10:24:10.763Z,3.60
2024-01-15T10:25:10.756Z,4.70
2024-01-15T10:26:10.723Z,4.80
2024-01-15T10:27:10.797Z,5.10
2024-01-15T10:28:10.715Z,4.60
2024-01-15T10:29:10.695Z,3.80
2024-01-15T10:30:10.726Z,4.90
2024-01-15T10:31:10.750Z,3.80
2024-01-15T10:32:10.990Z,4.90
2024-01-15T10:33:10.835Z,3.30
2024-01-15T10:34:10.771Z,5.30
2024-01-15T10:35:10.660Z,3.40
2024-01-15T10:36:10.747Z,4.40
2024-01-15T10:37:10.731Z,3.10
2024-01-15T10:38:10.619Z,3.20
2024-01-15T10:39:10.673Z,3.10
2024-01-15T10:40:10.574Z,3.20
2024-01-15T10:41:10.598Z,4.50
2024-01-15T10:42:10.609Z,3.60
2024-01-15T10:43:10.555Z,3.50
2024-01-15T10:44:10.540Z,4.30
2024-01-15T10:45:10.587Z,3.00
2024-01-15T10:46:10.556Z,5.20
2024-01-15T10:47:10.517Z,4.20
2024-01-15T10:48:10.719Z,3.60
2024-01-15T10:49:10.589Z,2.80
2024-01-15T10:50:10.469Z,4.60
2024-01-15T10:51:10.498Z,4.10
2024-01-15T10:52:10.456Z,3.00
2024-01-15T10:53:10.445Z,3.60
2024-01-15T10:54:10.453Z,3.00
2024-01-15T10:55:14.521Z,4.00
2024-01-15T10:56:10.492Z,3.90
2024-01-15T10:57:10.453Z,3.60
2024-01-15T10:58:10.383Z,2.50
2024-01-15T10:59:10.385Z,3.20
2024-01-15T11:00:10.584Z,3.70
2024-01-15T11:01:10.447Z,4.10
2024-01-15T11:02:10.401Z,3.50
2024-01-15T11:03:10.538Z,3.30
2024-01-15T11:04:10.462Z,3.80
2024-01-15T11:05:10.352Z,2.30
2024-01-15T11:07:10.346Z,2.70
2024-01-15T11:08:10.292Z,3.50
2024-01-15T11:09:10.423Z,1.60
2024-01-15T11:10:10.270Z,2.60
2024-01-15T11:11:10.268Z,2.90
2024-01-15T11:12:10.377Z,4.20
2024-01-15T11:13:10.230Z,3.40
2024-01-15T11:14:10.249Z,3.20
2024-01-15T11:15:10.658Z,4.40
2024-01-15T11:16:10.218Z,1.50
2024-01-15T11:17:10.196Z,2.20
2024-01-15T11:18:10.258Z,2.60
2024-01-15T11:19:10.287Z,2.40
2024-01-15T11:20:10.188Z,2.60
2024-01-15T11:21:10.256Z,3.00
2024-01-15T11:22:10.144Z,2.20
2024-01-15T11:23:10.185Z,3.90
2024-01-15T11:24:10.222Z,3.30
2024-01-15T11:25:10.118Z,3.70
2024-01-15T11:26:10.094Z,3.50
2024-01-15T11:27:10.103Z,1.90
2024-01-15T11:28:10.078Z,1.90
2024-01-15T11:29:10.065Z,5.70
2024-01-15T11:30:10.128Z,4.70
2024-01-15T11:31:10.180Z,5.10
2024-01-15T11:32:10.233Z,5.40
2024-01-15T11:33:10.148Z,2.60
2024-01-15T11:34:10.232Z,3.00
2024-01-15T11:35:10.034Z,2.90
2024-01-15T11:36:09.982Z,3.90
2024-01-15T11:37:09.989Z,3.80
2024-01-15T11:38:09.969Z,5.50
2024-01-15T11:39:09.957Z,4.80
2024-01-15T11:40:09.941Z,4.90
2024-01-15T11:41:09.934Z,4.10
2024-01-15T11:42:09.960Z,5.60
2024-01-15T11:43:09.940Z,8.60
2024-01-15T11:44:09.904Z,5.30
2024-01-15T11:45:09.909Z,4.30
2024-01-15T11:46:09.950Z,2.70
2024-01-15T11:47:12.966Z,3.30
2024-01-15T11:48:09.919Z,5.70
2024-01-15T11:49:09.911Z,4.30
2024-01-15T11:50:10.012Z,5.10
2024-01-15T11:51:09.834Z,4.80
2024-01-15T11:52:09.832Z,6.40
2024-01-15T11:53:09.820Z,4.60
2024-01-15T11:54:09.828Z,4.30
2024-01-15T11:55:09.796Z,4.00
2024-01-15T11:56:09.789Z,4.10
2024-01-15T11:57:09.771Z,4.70
2024-01-15T11:58:09.771Z,8.50
2024-01-15T11:59:09.755Z,6.50
2024-01-15T12:00:09.742Z,6.80
2024-01-15T12:01:09.848Z,6.30
2024-01-15T12:02:09.707Z,7.60
2024-01-15T12:03:09.701Z,5.20
2024-01-15T12:04:09.855Z,6.40
2024-01-15T12:05:09.767Z,5.60
2024-01-15T12:06:09.737Z,7.20
2024-01-15T12:07:09.744Z,6.20
2024-01-15T12:08:09.642Z,6.00
2024-01-15T12:09:09.642Z,4.10
2024-01-15T12:10:09.630Z,3.60
2024-01-15T12:11:09.616Z,4.70
2024-01-15T12:12:09.599Z,4.80
2024-01-15T12:13:09.617Z,7.80
2024-01-15T12:14:09.616Z,6.20
2024-01-15T12:15:09.584Z,4.70
2024-01-15T12:16:09.739Z,7.40
2024-01-15T12:17:09.566Z,6.40
2024-01-15T12:18:09.575Z,4.90
2024-01-15T12:19:09.669Z,5.10
2024-01-15T12:20:09.537Z,5.70
2024-01-15T12:21:09.506Z,9.00
2024-01-15T12:22:09.505Z,5.20
2024-01-15T12:23:10.419Z,7.90
2024-01-15T12:24:09.499Z,5.80
2024-01-15T12:25:09.472Z,6.20
2024-01-15T12:26:09.466Z,7.20
2024-01-15T12:27:09.462Z,9.30
2024-01-15T12:28:09.418Z,7.20
2024-01-15T12:29:09.446Z,9.10
2024-01-15T12:30:09.434Z,6.30
2024-01-15T12:31:09.480Z,6.70
2024-01-15T12:32:09.401Z,8.50
2024-01-15T12:33:10.385Z,8.50
2024-01-15T12:34:09.437Z,8.00
2024-01-15T12:35:09.362Z,7.30
2024-01-15T12:36:09.357Z,8.10
2024-01-15T12:37:09.339Z,10.50
2024-01-15T12:38:09.366Z,6.00
2024-01-15T12:39:09.311Z,10.90
2024-01-15T12:40:09.332Z,8.30
2024-01-15T12:41:09.297Z,6.20
2024-01-15T12:42:09.283Z,5.90
2024-01-15T12:43:09.352Z,8.20
2024-01-15T12:44:09.283Z,9.30
2024-01-15T12:45:09.252Z,8.40
2024-01-15T12:46:09.243Z,7.80
2024-01-15T12:47:09.245Z,13.40
2024-01-15T12:48:09.337Z,7.90
2024-01-15T12:49:09.290Z,6.00
2024-01-15T12:50:16.259Z,8.20
2024-01-15T12:51:09.196Z,5.40
2024-01-15T12:52:09.178Z,6.50
2024-01-15T12:53:09.190Z,7.90
2024-01-15T12:54:09.161Z,7.00
2024-01-15T12:55:09.146Z,6.00
2024-01-15T12:56:09.133Z,7.30
2024-01-15T12:57:09.131Z,7.10
2024-01-15T12:58:09.114Z,6.40
2024-01-15T12:59:09.108Z,5.90
2024-01-15T13:00:09.085Z,6.80
2024-01-15T13:01:09.164Z,7.40